Aeroporto :
LOGIN :

Iscrizione | Disclaimer

   EN    FR    IT 

 










Sommario :    VFR   VFR Marginale   IFR   IFR Intensivo   IFR Molto Intensivo
Visibilità : 
Base nubi : 
>= 8 km
>= 3000ft
5 / 8 km
1000 / 3000 ft
1500m / 5 km
500 / 1000 ft
800 / 1500m
200 / 500 ft
< 800m
< 200 ft
Simboli :   Temporali  Nebbia  Neve Forte  Precipitazioni Forti  Vento > 20 kt
SIGMETs :   Varie  Temporali  Ghiacco  Turbolenza  Onda orograficha  Ceneri Vulcaniche






- Altitudine del aeroporto : 433 ft


LFOC - Chateaudun

ULTIMO METAR :
  • 201900Z AUTO 03003KT 5000 BR ////// 01/01 Q1008

METARs OBSOLETI :
  • 201830Z AUTO 03004KT 5000 // ////// 02/01 Q1008
  • 201800Z AUTO 04003KT 6000 // ////// 02/02 Q1008
  • 201730Z AUTO 07006KT 7000 ////// 03/02 Q1008
  • 201700Z AUTO 07007KT 8000 ////// 04/03 Q1008
  • 201630Z AUTO 06006KT 9999 -RA ////// 04/03 Q1008

TAF TAF LFOC
Valido dal 20 a 15 ore il 21 a 15 ore UTC


201400Z 2015/2115 10010KT CAVOK
TEMPO 2021/2109 3000 BR
PROB40
TEMPO 2101/2109 0900 FG VV///



MetMap, La meteo Aeronautica in un colpo d'occhio ! - Copyright ORBIFLY Dicembre 2007 - Disclaimer

ORBIFLY MET'MAP TEAM :

Programmazione e sviluppo : Alexandra Zaïnal
Concezione e sviluppo : Baudouin d'Aumeries
Co-Programmazione e sviluppo : Marc-Olivier Méhu
Supporto tecnico e logistico : Manuel Goepfert
Aiuto per la traduzione : Arnaldo La Scala

Contatto : metmap@orbifly.com




FONTI E CREDITI :

   NOAA